createdAt,value
2023-02-09T00:00:44.871Z,48.40
2023-02-09T00:01:47.200Z,49.70
2023-02-09T00:02:50.322Z,47.40
2023-02-09T00:03:53.540Z,41.80
2023-02-09T00:04:55.731Z,37.50
2023-02-09T00:06:03.190Z,47.89
2023-02-09T00:07:05.403Z,43.70
2023-02-09T00:08:07.329Z,61.30
2023-02-09T00:09:09.393Z,39.44
2023-02-09T00:10:12.401Z,41.60
2023-02-09T00:11:26.833Z,44.11
2023-02-09T00:12:47.174Z,45.70
2023-02-09T00:13:49.393Z,45.20
2023-02-09T00:14:51.614Z,57.10
2023-02-09T00:16:02.090Z,57.33
2023-02-09T00:17:05.332Z,56.30
2023-02-09T00:18:07.551Z,54.80
2023-02-09T00:19:11.706Z,49.20
2023-02-09T00:20:14.412Z,35.70
2023-02-09T00:21:16.632Z,34.60
2023-02-09T00:22:19.401Z,51.30
2023-02-09T00:23:21.448Z,47.90
2023-02-09T00:24:23.865Z,40.70
2023-02-09T00:25:25.999Z,39.00
2023-02-09T00:26:28.357Z,48.60
2023-02-09T00:27:31.783Z,44.00
2023-02-09T00:28:34.209Z,48.20
2023-02-09T00:29:36.343Z,57.80
2023-02-09T00:30:40.801Z,48.70
2023-02-09T00:31:43.593Z,44.10
2023-02-09T00:32:46.893Z,54.70
2023-02-09T00:33:49.936Z,56.30
2023-02-09T00:34:51.952Z,45.90
2023-02-09T00:35:54.965Z,47.78
2023-02-09T00:36:58.352Z,48.00
2023-02-09T00:38:00.534Z,56.00
2023-02-09T00:39:03.507Z,52.30
2023-02-09T00:40:07.301Z,40.80
2023-02-09T00:41:11.218Z,47.60
2023-02-09T00:42:13.204Z,42.00
2023-02-09T00:43:15.179Z,55.33
2023-02-09T00:44:18.324Z,36.00
2023-02-09T00:45:21.006Z,46.10
2023-02-09T00:46:23.745Z,45.40
2023-02-09T00:47:26.070Z,47.50
2023-02-09T00:48:30.377Z,47.50
2023-02-09T00:49:32.779Z,43.60
2023-02-09T00:50:35.960Z,37.80
2023-02-09T00:51:38.093Z,47.70
2023-02-09T00:52:40.385Z,52.30
2023-02-09T00:53:42.401Z,53.40
2023-02-09T00:54:45.165Z,44.70
2023-02-09T00:55:49.563Z,49.40
2023-02-09T00:56:52.242Z,38.40
2023-02-09T00:57:54.477Z,42.60
2023-02-09T00:58:57.553Z,39.70
2023-02-09T01:00:00.721Z,44.90
2023-02-09T01:01:03.973Z,61.60
2023-02-09T01:02:06.574Z,53.40
2023-02-09T01:03:08.886Z,38.00
2023-02-09T01:04:11.504Z,48.40
2023-02-09T01:05:13.886Z,46.50
2023-02-09T01:06:16.419Z,54.90
2023-02-09T01:07:18.887Z,58.40
2023-02-09T01:08:20.961Z,55.60
2023-02-09T01:09:23.488Z,48.70
2023-02-09T01:10:25.785Z,54.40
2023-02-09T01:11:29.580Z,62.70
2023-02-09T01:12:31.808Z,38.10
2023-02-09T01:13:34.376Z,61.60
2023-02-09T01:14:39.023Z,67.70
2023-02-09T01:15:41.195Z,68.60
2023-02-09T01:16:44.291Z,75.00
2023-02-09T01:17:46.767Z,68.73
2023-02-09T01:18:49.359Z,68.30
2023-02-09T01:19:52.771Z,66.60
2023-02-09T01:20:55.222Z,70.90
2023-02-09T01:21:57.644Z,71.40
2023-02-09T01:22:59.648Z,64.40
2023-02-09T01:24:01.780Z,59.67
2023-02-09T01:25:06.055Z,64.33
2023-02-09T01:26:10.263Z,60.10
2023-02-09T01:27:12.226Z,60.60
2023-02-09T01:28:14.563Z,61.20
2023-02-09T01:29:19.190Z,61.10
2023-02-09T01:30:21.546Z,56.20
2023-02-09T01:31:30.251Z,58.80
2023-02-09T01:32:34.304Z,57.30
2023-02-09T01:33:36.683Z,56.10
2023-02-09T01:34:38.876Z,50.50
2023-02-09T01:35:40.923Z,62.50
2023-02-09T01:36:44.173Z,47.50
2023-02-09T01:37:46.566Z,47.40
2023-02-09T01:38:50.514Z,42.00
2023-02-09T01:39:52.622Z,51.60
2023-02-09T01:40:55.022Z,55.50
2023-02-09T01:41:57.347Z,44.80
2023-02-09T01:42:59.719Z,52.30
2023-02-09T01:44:08.123Z,48.90
2023-02-09T01:45:23.431Z,50.50
2023-02-09T01:46:29.263Z,48.60
2023-02-09T01:47:34.646Z,46.10
2023-02-09T01:48:36.894Z,47.70
2023-02-09T01:49:39.066Z,45.22
2023-02-09T01:50:44.565Z,55.20
2023-02-09T01:51:50.587Z,45.70
2023-02-09T01:52:54.815Z,41.30
2023-02-09T01:53:57.786Z,43.20
2023-02-09T01:55:09.865Z,46.00
2023-02-09T01:57:29.103Z,42.70
2023-02-09T01:58:32.694Z,58.60
2023-02-09T01:59:38.124Z,68.20
2023-02-09T02:00:42.971Z,54.50
2023-02-09T02:01:45.851Z,59.50
2023-02-09T02:02:59.350Z,68.10
2023-02-09T02:04:02.495Z,62.40
2023-02-09T02:05:07.691Z,61.73
2023-02-09T02:06:13.652Z,46.70
2023-02-09T02:07:19.607Z,54.80
2023-02-09T02:08:39.956Z,56.50
2023-02-09T02:09:42.699Z,56.50
2023-02-09T02:10:45.790Z,58.30
2023-02-09T02:11:49.668Z,60.09
2023-02-09T02:12:54.028Z,58.70
2023-02-09T02:13:57.182Z,57.40
2023-02-09T02:14:59.282Z,54.18
2023-02-09T02:16:08.235Z,51.00
2023-02-09T02:17:33.960Z,61.30
2023-02-09T02:19:02.504Z,41.40
2023-02-09T02:20:30.029Z,45.30
2023-02-09T02:21:54.048Z,51.30
2023-02-09T02:23:22.253Z,42.40
2023-02-09T02:24:51.085Z,57.80
2023-02-09T02:26:11.668Z,59.20
2023-02-09T02:27:29.820Z,60.70
2023-02-09T02:28:38.640Z,56.50
2023-02-09T02:30:04.078Z,55.90
2023-02-09T02:31:33.239Z,55.90
2023-02-09T02:32:51.294Z,60.00
2023-02-09T02:34:27.295Z,55.50
2023-02-09T02:35:45.167Z,54.40
2023-02-09T02:37:03.133Z,47.70
2023-02-09T02:38:08.965Z,61.20
2023-02-09T02:39:17.536Z,61.40
2023-02-09T02:40:45.664Z,61.30
2023-02-09T02:43:47.695Z,61.90
2023-02-09T02:44:56.436Z,49.60
2023-02-09T02:46:02.585Z,62.10
2023-02-09T02:47:08.631Z,61.18
2023-02-09T02:48:26.905Z,65.00
2023-02-09T02:49:32.878Z,70.10
2023-02-09T02:50:38.793Z,62.90
2023-02-09T02:51:44.457Z,66.10
2023-02-09T02:52:50.855Z,71.20
2023-02-09T02:53:56.554Z,72.10
2023-02-09T02:55:11.531Z,69.60
2023-02-09T02:56:39.076Z,63.30
2023-02-09T02:57:44.776Z,67.40
2023-02-09T02:58:50.561Z,61.90
2023-02-09T02:59:56.675Z,56.20
2023-02-09T03:01:02.337Z,57.40
2023-02-09T03:02:18.662Z,58.90
2023-02-09T03:03:27.324Z,53.30
2023-02-09T03:04:32.182Z,55.20
2023-02-09T03:05:34.662Z,40.30
2023-02-09T03:06:37.825Z,47.70
2023-02-09T03:07:40.825Z,48.20
2023-02-09T03:08:49.803Z,55.64
2023-02-09T03:09:55.704Z,58.50
2023-02-09T03:10:58.621Z,56.60
2023-02-09T03:12:07.084Z,55.60
2023-02-09T03:13:33.541Z,53.40
2023-02-09T03:14:44.972Z,50.40
2023-02-09T03:15:50.734Z,47.20
2023-02-09T03:17:15.133Z,55.27
2023-02-09T03:18:32.609Z,55.00
2023-02-09T03:19:50.255Z,57.10
2023-02-09T03:21:08.190Z,49.70
2023-02-09T03:22:30.993Z,43.50
2023-02-09T03:23:39.479Z,52.30
2023-02-09T03:25:09.691Z,53.70
2023-02-09T03:26:16.195Z,54.60
2023-02-09T03:27:24.855Z,53.70
2023-02-09T03:28:31.815Z,44.90
2023-02-09T03:29:36.954Z,49.60
2023-02-09T03:30:41.784Z,50.50
2023-02-09T03:31:45.868Z,54.60
2023-02-09T03:32:48.403Z,55.50
2023-02-09T03:33:50.907Z,60.50
2023-02-09T03:34:55.028Z,54.60
2023-02-09T03:35:59.869Z,59.80
2023-02-09T03:37:02.206Z,47.80
2023-02-09T03:38:06.109Z,58.60
2023-02-09T03:39:08.354Z,53.10
2023-02-09T03:40:11.018Z,53.40
2023-02-09T03:41:13.090Z,47.90
2023-02-09T03:42:15.433Z,59.90
2023-02-09T03:43:17.466Z,58.90
2023-02-09T03:44:25.881Z,56.30
2023-02-09T03:45:28.158Z,58.80
2023-02-09T03:46:32.413Z,43.70
2023-02-09T03:47:34.667Z,48.70
2023-02-09T03:48:37.165Z,47.60
2023-02-09T03:49:40.896Z,45.30
2023-02-09T03:50:43.827Z,54.30
2023-02-09T03:51:46.500Z,48.40
2023-02-09T03:52:50.170Z,46.89
2023-02-09T03:53:52.524Z,50.60
2023-02-09T03:54:54.648Z,46.40
2023-02-09T03:55:56.599Z,47.67
2023-02-09T03:57:00.928Z,53.90
2023-02-09T03:58:03.794Z,56.20
2023-02-09T03:59:06.299Z,50.00
2023-02-09T04:00:11.572Z,41.40
2023-02-09T04:01:17.336Z,52.50
2023-02-09T04:02:19.601Z,58.70
2023-02-09T04:03:21.702Z,59.70
2023-02-09T04:04:25.205Z,47.90
2023-02-09T04:05:27.551Z,41.50
2023-02-09T04:06:32.644Z,47.20
2023-02-09T04:07:35.207Z,15.80
2023-02-09T04:08:37.789Z,50.30
2023-02-09T04:09:39.927Z,43.40
2023-02-09T04:10:42.249Z,42.50
2023-02-09T04:11:44.617Z,46.89
2023-02-09T04:12:47.730Z,44.10
2023-02-09T04:13:50.046Z,41.50
2023-02-09T04:14:52.070Z,46.40
2023-02-09T04:15:54.382Z,43.00
2023-02-09T04:16:56.661Z,46.60
2023-02-09T04:17:58.883Z,42.20
2023-02-09T04:19:01.173Z,37.50
2023-02-09T04:20:05.182Z,53.00
2023-02-09T04:21:07.580Z,53.60
2023-02-09T04:22:10.181Z,63.60
2023-02-09T04:23:12.684Z,62.90
2023-02-09T04:24:14.873Z,61.50
2023-02-09T04:25:17.298Z,66.50
2023-02-09T04:26:20.866Z,66.60
2023-02-09T04:27:23.035Z,63.10
2023-02-09T04:28:25.039Z,60.56
2023-02-09T04:29:27.494Z,63.60
2023-02-09T04:30:30.838Z,50.90
2023-02-09T04:31:35.022Z,56.60
2023-02-09T04:32:41.573Z,58.90
2023-02-09T04:33:44.891Z,62.60
2023-02-09T04:34:47.954Z,55.60
2023-02-09T04:35:52.126Z,62.20
2023-02-09T04:36:54.312Z,62.30
2023-02-09T04:37:56.956Z,62.80
2023-02-09T04:38:59.038Z,66.50
2023-02-09T04:40:01.639Z,58.89
2023-02-09T04:41:04.705Z,63.20
2023-02-09T04:42:06.658Z,61.82
2023-02-09T04:43:08.503Z,53.11
2023-02-09T04:44:10.585Z,64.56
2023-02-09T04:45:12.822Z,62.44
2023-02-09T04:46:17.427Z,78.80
2023-02-09T04:47:20.088Z,81.20
2023-02-09T04:48:24.099Z,84.50
2023-02-09T04:49:26.344Z,79.60
2023-02-09T04:50:28.602Z,72.10
2023-02-09T04:51:30.803Z,78.80
2023-02-09T04:52:33.302Z,66.20
2023-02-09T04:53:35.502Z,68.20
2023-02-09T04:54:37.368Z,69.00
2023-02-09T04:55:42.470Z,64.00
2023-02-09T04:56:44.732Z,69.50
2023-02-09T04:58:05.103Z,65.44
2023-02-09T04:59:28.266Z,77.00
2023-02-09T05:00:30.849Z,79.20
2023-02-09T05:01:33.298Z,81.20
2023-02-09T05:02:35.734Z,79.80
2023-02-09T05:03:37.612Z,81.33
2023-02-09T05:04:39.719Z,75.67
2023-02-09T05:05:42.472Z,77.78
2023-02-09T05:06:45.120Z,70.90
2023-02-09T05:07:48.013Z,70.60
2023-02-09T05:08:50.253Z,69.20
2023-02-09T05:09:52.529Z,74.30
2023-02-09T05:10:55.689Z,74.20
2023-02-09T05:11:57.768Z,82.60
2023-02-09T05:13:00.248Z,84.70
2023-02-09T05:14:03.625Z,84.60
2023-02-09T05:15:06.725Z,75.90
2023-02-09T05:16:13.539Z,74.40
2023-02-09T05:17:17.493Z,68.30
2023-02-09T05:18:20.044Z,71.10
2023-02-09T05:19:22.344Z,74.20
2023-02-09T05:20:25.771Z,82.40
2023-02-09T05:21:27.963Z,76.18
2023-02-09T05:22:30.061Z,84.78
2023-02-09T05:23:32.347Z,74.11
2023-02-09T05:24:34.459Z,96.80
2023-02-09T05:25:38.794Z,100.11
2023-02-09T05:26:42.421Z,93.80
2023-02-09T05:27:44.502Z,96.36
2023-02-09T05:28:46.355Z,102.22
2023-02-09T05:29:48.305Z,90.89
2023-02-09T05:30:53.158Z,100.22
2023-02-09T05:31:55.446Z,91.70
2023-02-09T05:32:58.805Z,118.60
2023-02-09T05:34:01.496Z,111.30
2023-02-09T05:35:03.571Z,106.80
2023-02-09T05:36:08.571Z,100.56
2023-02-09T05:37:10.917Z,113.40
2023-02-09T05:38:13.454Z,107.10
2023-02-09T05:39:17.079Z,120.90
2023-02-09T05:40:19.468Z,114.18
2023-02-09T05:41:40.192Z,112.10
2023-02-09T05:42:42.874Z,117.60
2023-02-09T05:43:45.089Z,115.40
2023-02-09T05:44:49.687Z,103.89
2023-02-09T05:45:53.203Z,112.70
2023-02-09T05:46:56.067Z,111.80
2023-02-09T05:47:58.180Z,130.00
2023-02-09T05:49:00.437Z,104.11
2023-02-09T05:50:03.488Z,116.20
2023-02-09T05:51:07.014Z,127.30
2023-02-09T05:52:10.695Z,123.10
2023-02-09T05:53:14.428Z,109.00
2023-02-09T05:54:17.785Z,107.40
2023-02-09T05:55:19.792Z,110.90
2023-02-09T05:56:22.261Z,101.78
2023-02-09T05:57:24.335Z,103.90
2023-02-09T05:58:27.267Z,100.82
2023-02-09T05:59:29.859Z,102.30
2023-02-09T06:00:32.048Z,97.10
2023-02-09T06:01:34.993Z,96.44
2023-02-09T06:02:37.259Z,95.90
2023-02-09T06:03:39.543Z,97.40
2023-02-09T06:04:41.777Z,88.90
2023-02-09T06:05:45.303Z,91.56
2023-02-09T06:06:47.922Z,98.50
2023-02-09T06:07:52.167Z,90.20
2023-02-09T06:08:54.313Z,89.30
2023-02-09T06:09:56.381Z,104.11
2023-02-09T06:10:59.318Z,102.90
2023-02-09T06:12:01.630Z,98.00
2023-02-09T06:13:03.757Z,109.60
2023-02-09T06:14:07.194Z,92.89
2023-02-09T06:15:10.379Z,106.20
2023-02-09T06:16:12.786Z,101.18
2023-02-09T06:17:15.365Z,93.60
2023-02-09T06:18:18.455Z,102.10
2023-02-09T06:19:21.057Z,97.09
2023-02-09T06:20:23.284Z,110.70
2023-02-09T06:21:26.575Z,105.20
2023-02-09T06:22:30.323Z,106.50
2023-02-09T06:23:35.147Z,114.50
2023-02-09T06:24:36.859Z,125.60
2023-02-09T06:25:40.192Z,130.00
2023-02-09T06:26:43.181Z,140.50
2023-02-09T06:27:46.286Z,149.60
2023-02-09T06:28:48.556Z,131.00
2023-02-09T06:29:50.753Z,119.70
2023-02-09T06:30:54.008Z,105.33
2023-02-09T06:31:56.543Z,119.30
2023-02-09T06:32:58.663Z,114.40
2023-02-09T06:34:02.983Z,107.78
2023-02-09T06:35:06.256Z,120.70
2023-02-09T06:36:10.029Z,121.50
2023-02-09T06:37:12.307Z,128.70
2023-02-09T06:38:14.421Z,104.00
2023-02-09T06:39:16.308Z,109.78
2023-02-09T06:40:18.545Z,101.00
2023-02-09T06:41:20.784Z,123.60
2023-02-09T06:42:22.752Z,120.33
2023-02-09T06:43:25.195Z,125.30
2023-02-09T06:44:27.513Z,125.80
2023-02-09T06:45:29.734Z,110.20
2023-02-09T06:46:31.928Z,113.60
2023-02-09T06:47:34.948Z,99.11
2023-02-09T06:48:38.533Z,111.45
2023-02-09T06:49:41.684Z,109.30
2023-02-09T06:50:45.044Z,108.36
2023-02-09T06:51:47.760Z,110.40
2023-02-09T06:52:49.934Z,101.22
2023-02-09T06:53:52.174Z,97.80
2023-02-09T06:54:54.967Z,94.90
2023-02-09T06:56:01.071Z,94.60
2023-02-09T06:57:03.542Z,97.40
2023-02-09T06:58:05.861Z,95.70
2023-02-09T06:59:08.403Z,94.33
2023-02-09T07:00:12.649Z,83.36
2023-02-09T07:01:15.838Z,96.60
2023-02-09T07:02:18.354Z,97.55
2023-02-09T07:03:22.318Z,95.00
2023-02-09T07:04:24.703Z,88.90
2023-02-09T07:05:27.998Z,101.10
2023-02-09T07:06:30.786Z,104.70
2023-02-09T07:07:32.915Z,97.00
2023-02-09T07:08:36.231Z,95.70
2023-02-09T07:09:38.358Z,84.10
2023-02-09T07:10:40.887Z,100.40
2023-02-09T07:11:44.335Z,90.10
2023-02-09T07:12:46.507Z,84.80
2023-02-09T07:13:49.320Z,82.10
2023-02-09T07:14:51.945Z,86.00
2023-02-09T07:15:57.133Z,88.60
2023-02-09T07:16:59.898Z,87.00
2023-02-09T07:18:01.893Z,97.40
2023-02-09T07:19:03.939Z,90.00
2023-02-09T07:20:08.632Z,85.20
2023-02-09T07:21:17.388Z,84.40
2023-02-09T07:22:19.583Z,80.90
2023-02-09T07:23:22.475Z,83.44
2023-02-09T07:24:24.843Z,79.30
2023-02-09T07:25:27.745Z,86.10
2023-02-09T07:26:30.439Z,86.00
2023-02-09T07:27:32.902Z,77.80
2023-02-09T07:28:37.153Z,82.40
2023-02-09T07:29:39.290Z,79.09
2023-02-09T07:30:41.550Z,80.90
2023-02-09T07:31:43.891Z,85.56
2023-02-09T07:32:46.685Z,84.80
2023-02-09T07:33:48.789Z,89.90
2023-02-09T07:34:50.854Z,87.78
2023-02-09T07:35:53.090Z,86.60
2023-02-09T07:36:55.478Z,90.30
2023-02-09T07:37:58.608Z,88.00
2023-02-09T07:39:00.997Z,85.50
2023-02-09T07:40:04.237Z,87.50
2023-02-09T07:41:08.977Z,82.82
2023-02-09T07:42:11.003Z,81.90
2023-02-09T07:43:28.043Z,84.90
2023-02-09T07:44:30.860Z,83.30
2023-02-09T07:45:33.430Z,84.20
2023-02-09T07:46:37.310Z,81.90
2023-02-09T07:47:39.571Z,80.40
2023-02-09T07:48:42.154Z,75.78
2023-02-09T07:49:44.575Z,69.80
2023-02-09T07:50:50.681Z,74.60
2023-02-09T07:51:53.690Z,80.40
2023-02-09T07:52:56.636Z,76.91
2023-02-09T07:54:00.973Z,80.91
2023-02-09T07:55:04.230Z,79.70
2023-02-09T07:56:08.018Z,75.60
2023-02-09T07:57:13.804Z,71.55
2023-02-09T07:58:18.921Z,75.10
2023-02-09T07:59:21.285Z,78.50
2023-02-09T08:00:24.952Z,79.40
2023-02-09T08:01:27.070Z,83.50
2023-02-09T08:02:33.054Z,82.33
2023-02-09T08:03:37.465Z,82.00
2023-02-09T08:04:39.967Z,88.20
2023-02-09T08:05:46.165Z,85.40
2023-02-09T08:06:48.517Z,89.60
2023-02-09T08:07:50.748Z,99.70
2023-02-09T08:08:53.337Z,78.44
2023-02-09T08:09:56.397Z,102.00
2023-02-09T08:11:01.324Z,91.10
2023-02-09T08:12:08.240Z,81.80
2023-02-09T08:13:11.659Z,86.30
2023-02-09T08:14:17.618Z,86.60
2023-02-09T08:15:22.269Z,79.60
2023-02-09T08:16:29.347Z,73.90
2023-02-09T08:17:32.217Z,73.00
2023-02-09T08:18:39.827Z,70.10
2023-02-09T08:19:42.833Z,71.80
2023-02-09T08:20:47.956Z,80.70
2023-02-09T08:21:51.365Z,65.90
2023-02-09T08:22:56.104Z,74.10
2023-02-09T08:24:00.687Z,63.70
2023-02-09T08:25:04.631Z,26.00
2023-02-09T08:26:10.492Z,66.60
2023-02-09T08:27:13.264Z,73.50
2023-02-09T08:28:16.417Z,64.70
2023-02-09T08:29:23.809Z,62.45
2023-02-09T08:30:26.309Z,63.20
2023-02-09T08:31:28.708Z,66.50
2023-02-09T08:32:31.333Z,48.10
2023-02-09T08:33:33.919Z,57.30
2023-02-09T08:34:36.997Z,61.50
2023-02-09T08:35:39.339Z,53.00
2023-02-09T08:36:41.761Z,53.30
2023-02-09T08:37:45.113Z,56.20
2023-02-09T08:38:50.123Z,62.90
2023-02-09T08:39:52.397Z,61.80
2023-02-09T08:40:55.238Z,53.20
2023-02-09T08:41:57.247Z,55.20
2023-02-09T08:42:59.849Z,50.22
2023-02-09T08:44:03.418Z,50.00
2023-02-09T08:45:08.422Z,56.60
2023-02-09T08:46:14.268Z,53.30
2023-02-09T08:47:18.767Z,29.70
2023-02-09T08:48:22.635Z,55.40
2023-02-09T08:49:27.649Z,51.50
2023-02-09T08:50:30.826Z,47.40
2023-02-09T08:51:34.397Z,46.56
2023-02-09T08:52:36.864Z,57.00
2023-02-09T08:53:40.287Z,60.70
2023-02-09T08:54:43.845Z,54.30
2023-02-09T08:55:46.615Z,45.20
2023-02-09T08:56:49.727Z,49.30
2023-02-09T08:57:52.486Z,45.80
2023-02-09T08:58:55.302Z,47.00
2023-02-09T08:59:58.472Z,48.50
2023-02-09T09:01:01.658Z,48.10
2023-02-09T09:02:04.041Z,52.90
2023-02-09T09:03:08.573Z,63.89
2023-02-09T09:04:19.957Z,45.10
2023-02-09T09:05:22.892Z,50.30
2023-02-09T09:06:26.951Z,41.00
2023-02-09T09:07:30.229Z,43.40
2023-02-09T09:08:37.380Z,51.10
2023-02-09T09:09:43.777Z,50.20
2023-02-09T09:10:49.497Z,42.60
2023-02-09T09:11:53.216Z,58.30
2023-02-09T09:12:56.458Z,48.20
2023-02-09T09:13:59.604Z,34.55
2023-02-09T09:15:03.280Z,54.80
2023-02-09T09:16:06.784Z,56.30
2023-02-09T09:17:09.255Z,52.90
2023-02-09T09:18:12.732Z,52.50
2023-02-09T09:19:16.347Z,57.30
2023-02-09T09:20:20.325Z,48.90
2023-02-09T09:21:23.828Z,45.91
2023-02-09T09:22:33.570Z,64.50
2023-02-09T09:23:38.936Z,59.80
2023-02-09T09:24:41.765Z,59.00
2023-02-09T09:25:45.215Z,59.40
2023-02-09T09:26:48.718Z,53.90
2023-02-09T09:27:51.464Z,61.73
2023-02-09T09:28:57.953Z,60.00
2023-02-09T09:30:05.532Z,69.80
2023-02-09T09:31:14.943Z,68.00
2023-02-09T09:32:18.381Z,62.20
2023-02-09T09:33:21.566Z,43.90
2023-02-09T09:34:24.206Z,53.00
2023-02-09T09:35:27.497Z,55.10
2023-02-09T09:36:31.326Z,73.30
2023-02-09T09:37:35.287Z,40.70
2023-02-09T09:38:39.930Z,58.10
2023-02-09T09:40:00.334Z,57.89
2023-02-09T09:41:09.851Z,47.60
2023-02-09T09:42:36.607Z,41.90
2023-02-09T09:43:41.774Z,37.70
2023-02-09T09:44:47.498Z,51.40
2023-02-09T09:45:52.603Z,48.80
2023-02-09T09:47:07.952Z,33.82
2023-02-09T09:48:27.348Z,56.70
2023-02-09T09:53:09.010Z,46.70
2023-02-09T09:54:21.198Z,43.90
2023-02-09T09:55:26.817Z,43.50
2023-02-09T09:56:31.245Z,49.00
2023-02-09T09:57:36.912Z,42.90
2023-02-09T09:58:42.321Z,38.90
2023-02-09T09:59:45.983Z,55.80
2023-02-09T10:00:50.642Z,44.10
2023-02-09T10:01:55.868Z,51.80
2023-02-09T10:03:00.341Z,60.60
2023-02-09T10:04:09.019Z,58.30
2023-02-09T10:05:28.459Z,59.20
2023-02-09T10:06:33.679Z,45.80
2023-02-09T10:07:39.889Z,50.00
2023-02-09T10:08:48.686Z,51.50
2023-02-09T10:09:57.323Z,54.60
2023-02-09T10:11:12.407Z,55.10
2023-02-09T10:12:41.291Z,45.30
2023-02-09T10:13:50.929Z,43.90
2023-02-09T10:14:53.138Z,45.70
2023-02-09T10:15:57.089Z,49.00
2023-02-09T10:16:59.780Z,56.70
2023-02-09T10:18:03.174Z,45.64
2023-02-09T10:19:20.757Z,38.90
2023-02-09T10:20:53.632Z,42.60
2023-02-09T10:21:56.908Z,45.80
2023-02-09T10:22:59.507Z,48.36
2023-02-09T10:24:09.424Z,43.70
2023-02-09T10:27:16.301Z,65.50
2023-02-09T10:28:28.932Z,48.20
2023-02-09T10:29:33.034Z,34.90
2023-02-09T10:30:35.570Z,25.20
2023-02-09T10:31:43.856Z,30.30
2023-02-09T10:32:46.399Z,35.60
2023-02-09T10:35:04.927Z,23.90
2023-02-09T10:36:24.158Z,32.80
2023-02-09T10:37:39.414Z,38.30
2023-02-09T10:38:42.597Z,29.60
2023-02-09T10:39:48.538Z,31.90
2023-02-09T10:40:51.528Z,27.20
2023-02-09T10:41:56.815Z,25.27
2023-02-09T10:43:02.354Z,35.50
2023-02-09T10:44:17.726Z,30.00
2023-02-09T10:45:29.924Z,23.50
2023-02-09T10:46:33.132Z,35.90
2023-02-09T10:47:35.239Z,30.90
2023-02-09T10:48:43.166Z,30.78
2023-02-09T10:50:07.644Z,30.10
2023-02-09T10:52:36.038Z,42.90
2023-02-09T10:53:57.191Z,41.70
2023-02-09T10:57:30.382Z,30.50
2023-02-09T10:58:35.789Z,29.60
2023-02-09T10:59:40.699Z,39.20
2023-02-09T11:01:09.505Z,34.50
2023-02-09T11:02:32.731Z,37.10
2023-02-09T11:03:37.225Z,32.50
2023-02-09T11:04:40.865Z,36.00
2023-02-09T11:05:47.141Z,41.00
2023-02-09T11:06:58.501Z,36.90
2023-02-09T11:08:22.796Z,37.30
2023-02-09T11:09:36.750Z,32.40
2023-02-09T11:10:43.485Z,27.00
2023-02-09T11:11:45.945Z,26.60
2023-02-09T11:12:49.192Z,23.90
2023-02-09T11:13:51.434Z,29.90
2023-02-09T11:14:54.487Z,33.80
2023-02-09T11:16:00.291Z,33.00
2023-02-09T11:17:18.568Z,40.40
2023-02-09T11:18:29.036Z,44.40
2023-02-09T11:20:01.845Z,36.60
2023-02-09T11:21:43.991Z,48.80
2023-02-09T11:22:56.203Z,37.10
2023-02-09T11:24:08.395Z,29.20
2023-02-09T11:25:38.873Z,22.90
2023-02-09T11:26:45.231Z,29.20
2023-02-09T11:28:08.400Z,31.70
2023-02-09T11:29:17.212Z,35.20
2023-02-09T11:30:42.790Z,37.50
2023-02-09T11:31:55.220Z,36.70
2023-02-09T11:33:08.985Z,29.20
2023-02-09T11:34:35.602Z,38.30
2023-02-09T11:35:53.643Z,34.80
2023-02-09T11:37:11.954Z,27.60
2023-02-09T11:38:17.598Z,33.90
2023-02-09T11:39:23.405Z,33.30
2023-02-09T11:40:42.924Z,35.50
2023-02-09T11:42:07.313Z,28.30
2023-02-09T11:43:34.781Z,35.20
2023-02-09T11:44:40.629Z,31.20
2023-02-09T11:45:49.611Z,33.00
2023-02-09T11:46:56.663Z,38.60
2023-02-09T11:48:14.178Z,34.30
2023-02-09T11:49:21.102Z,40.80
2023-02-09T11:50:43.906Z,34.30
2023-02-09T11:51:51.051Z,42.40
2023-02-09T11:52:57.090Z,36.40
2023-02-09T11:54:27.573Z,41.20
2023-02-09T11:55:43.760Z,36.90
2023-02-09T11:56:53.758Z,26.30
2023-02-09T11:58:03.475Z,60.10
2023-02-09T11:59:23.940Z,45.90
2023-02-09T12:00:30.914Z,47.90
2023-02-09T12:02:09.943Z,53.30
2023-02-09T12:03:13.340Z,46.00
2023-02-09T12:04:20.027Z,46.10
2023-02-09T12:05:25.775Z,41.10
2023-02-09T12:06:42.126Z,43.60
2023-02-09T12:10:00.236Z,38.60
2023-02-09T12:11:21.555Z,35.00
2023-02-09T12:12:42.415Z,39.20
2023-02-09T12:13:53.478Z,29.10
2023-02-09T12:15:08.057Z,39.30
2023-02-09T12:16:18.928Z,23.10
2023-02-09T12:17:28.385Z,37.50
2023-02-09T12:18:34.745Z,30.30
2023-02-09T12:19:41.928Z,30.90
2023-02-09T12:21:00.760Z,27.60
2023-02-09T12:22:33.699Z,33.60
2023-02-09T12:23:43.022Z,28.50
2023-02-09T12:24:49.320Z,27.00
2023-02-09T12:26:01.406Z,35.90
2023-02-09T12:27:07.346Z,26.40
2023-02-09T12:28:16.670Z,26.50
2023-02-09T12:29:31.861Z,30.10
2023-02-09T12:30:45.303Z,34.00
2023-02-09T12:32:08.985Z,29.90
2023-02-09T12:33:28.142Z,48.90
2023-02-09T12:34:52.191Z,48.20
2023-02-09T12:36:13.959Z,48.50
2023-02-09T12:37:27.557Z,44.00
2023-02-09T12:38:56.461Z,37.10
2023-02-09T12:40:17.159Z,46.50
2023-02-09T12:41:26.861Z,36.10
2023-02-09T12:42:41.634Z,40.80
2023-02-09T12:43:44.928Z,43.40
2023-02-09T12:44:55.632Z,39.70
2023-02-09T12:46:29.663Z,39.60
2023-02-09T12:47:42.597Z,45.70
2023-02-09T12:48:55.531Z,42.80
2023-02-09T12:50:04.452Z,38.00
2023-02-09T12:51:10.884Z,40.90
2023-02-09T12:52:16.720Z,39.40
2023-02-09T12:53:27.107Z,42.60
2023-02-09T12:54:56.266Z,50.20
2023-02-09T12:56:06.026Z,46.70
2023-02-09T12:57:18.800Z,40.60
2023-02-09T12:58:46.303Z,45.70
2023-02-09T12:59:58.608Z,29.30
2023-02-09T13:01:03.353Z,55.70
2023-02-09T13:02:10.472Z,49.70
2023-02-09T13:03:17.031Z,46.10
2023-02-09T13:04:20.506Z,34.80
2023-02-09T13:06:50.317Z,49.40
2023-02-09T13:08:08.126Z,44.00
2023-02-09T13:09:18.544Z,37.40
2023-02-09T13:10:40.555Z,46.10
2023-02-09T13:11:58.354Z,56.10
2023-02-09T13:13:13.036Z,55.70
2023-02-09T13:14:18.042Z,43.20
2023-02-09T13:15:22.417Z,47.90
2023-02-09T13:16:28.458Z,46.10
2023-02-09T13:17:34.934Z,35.50
2023-02-09T13:18:50.104Z,44.70
2023-02-09T13:20:05.017Z,48.90
2023-02-09T13:21:29.128Z,53.00
2023-02-09T13:22:51.581Z,49.40
2023-02-09T13:24:13.222Z,22.20
2023-02-09T13:25:19.541Z,54.60
2023-02-09T13:26:27.034Z,40.70
2023-02-09T13:27:29.632Z,40.60
2023-02-09T13:28:32.284Z,36.00
2023-02-09T13:29:35.105Z,34.50
2023-02-09T13:30:37.883Z,35.70
2023-02-09T13:31:43.022Z,27.40
2023-02-09T13:32:48.997Z,25.00
2023-02-09T13:33:54.833Z,34.30
2023-02-09T13:35:04.976Z,29.50
2023-02-09T13:36:33.036Z,28.90
2023-02-09T13:37:51.202Z,27.00
2023-02-09T13:38:53.781Z,24.60
2023-02-09T13:40:03.242Z,32.55
2023-02-09T13:41:08.389Z,36.60
2023-02-09T13:42:13.789Z,22.10
2023-02-09T13:43:20.432Z,25.30
2023-02-09T13:44:31.436Z,23.40
2023-02-09T13:45:33.676Z,21.30
2023-02-09T13:46:38.960Z,30.80
2023-02-09T13:47:43.380Z,30.20
2023-02-09T13:48:46.142Z,24.50
2023-02-09T13:50:00.292Z,25.45
2023-02-09T13:51:06.394Z,23.20
2023-02-09T13:52:13.992Z,19.40
2023-02-09T13:53:22.785Z,28.50
2023-02-09T13:54:25.712Z,30.60
2023-02-09T13:55:31.503Z,26.40
2023-02-09T13:56:36.787Z,33.90
2023-02-09T13:57:42.644Z,36.40
2023-02-09T13:58:47.922Z,22.50
2023-02-09T13:59:52.047Z,36.40
2023-02-09T14:01:17.361Z,31.10
2023-02-09T14:02:23.793Z,33.40
2023-02-09T14:03:29.840Z,29.80
2023-02-09T14:04:34.364Z,32.30
2023-02-09T14:05:43.560Z,32.90
2023-02-09T14:06:53.570Z,37.80
2023-02-09T14:07:56.654Z,24.00
2023-02-09T14:09:01.724Z,30.73
2023-02-09T14:11:42.727Z,28.80
2023-02-09T14:12:55.990Z,32.60
2023-02-09T14:14:03.301Z,34.00
2023-02-09T14:15:28.318Z,35.80
2023-02-09T14:16:39.024Z,35.60
2023-02-09T14:17:38.551Z,33.20
2023-02-09T14:18:47.717Z,39.50
2023-02-09T14:19:53.945Z,37.70
2023-02-09T14:21:13.198Z,37.00
2023-02-09T14:22:43.046Z,35.70
2023-02-09T14:24:00.784Z,33.80
2023-02-09T14:25:15.204Z,45.40
2023-02-09T14:26:25.196Z,45.80
2023-02-09T14:27:32.433Z,40.50
2023-02-09T14:28:37.032Z,33.70
2023-02-09T14:29:43.341Z,32.40
2023-02-09T14:30:50.822Z,37.80
2023-02-09T14:31:58.432Z,43.50
2023-02-09T14:33:02.820Z,33.20
2023-02-09T14:34:04.904Z,41.30
2023-02-09T14:35:19.652Z,27.90
2023-02-09T14:36:34.967Z,40.40